Date,TemperatureHighF,TemperatureAvgF,TemperatureLowF,DewpointHighF,DewpointAvgF,DewpointLowF,HumidityHigh,HumidityAvg,HumidityLow,PressureMaxIn,PressureMinIn,WindSpeedMaxMPH,WindSpeedAvgMPH,GustSpeedMaxMPH,PrecipitationSumIn
2013-5-1,67.9,67.8,67.6,66.7,66.6,66.4,96,96,96,29.94,29.93,7,2,7,0.03
2013-5-2,78.2,72.2,65.4,72.0,68.6,64.2,97,89,80,29.92,29.79,15,3,15,0.20
2013-5-3,84.1,71.1,64.7,72.8,67.1,63.5,98,89,58,29.82,29.68,22,3,22,0.74
2013-5-4,82.7,72.0,67.3,69.5,66.7,64.7,97,84,58,29.79,29.64,23,5,23,0.00
2013-5-5,77.7,68.5,57.7,66.4,54.6,44.6,94,65,34,29.93,29.75,24,6,24,0.00
2013-5-6,78.0,66.2,57.1,61.3,56.1,52.1,96,72,45,29.99,29.88,21,4,21,0.00
2013-5-7,79.5,65.8,50.8,61.9,55.8,49.4,97,73,44,30.04,29.95,21,3,21,0.00
2013-5-8,79.0,66.2,55.9,63.8,58.5,54.4,97,78,48,30.11,30.00,16,2,16,0.00
2013-5-9,86.1,71.9,55.3,66.4,59.4,53.9,97,69,38,30.13,30.04,12,2,12,0.00
2013-5-10,90.8,77.5,62.1,73.1,66.0,60.2,97,71,39,30.12,29.96,18,3,18,0.00
2013-5-11,88.8,76.5,66.2,76.4,69.2,64.7,97,79,54,30.04,29.94,24,3,24,0.15
2013-5-12,71.2,68.4,67.0,70.0,66.5,65.0,96,94,91,30.01,29.91,8,0,8,0.00
2013-5-13,84.3,75.7,62.3,67.0,58.3,46.8,92,57,35,30.11,30.02,19,5,19,0.00
2013-5-14,84.5,69.9,52.9,60.1,53.4,46.4,96,61,30,30.19,30.08,19,3,19,0.00
2013-5-15,86.1,70.7,55.8,64.8,58.2,53.9,97,68,38,30.20,30.06,16,3,16,0.00
2013-5-16,87.2,74.5,61.2,65.2,60.8,51.3,95,66,30,30.11,29.98,20,4,20,0.00
2013-5-17,89.0,76.5,61.5,68.1,62.9,55.8,95,66,34,30.08,30.00,19,3,19,0.00
2013-5-18,93.3,79.2,68.6,73.0,67.1,57.9,95,70,33,30.09,29.96,18,3,18,0.00
2013-5-19,92.5,79.4,70.0,73.4,69.6,63.7,94,74,41,30.07,29.95,20,4,20,0.00
2013-5-20,90.5,76.3,66.3,73.7,68.8,64.4,96,80,45,30.06,29.94,29,3,29,0.45
2013-5-21,86.0,72.6,65.6,74.1,68.8,64.4,98,89,58,30.02,29.92,29,2,29,0.84
2013-5-22,87.5,74.9,66.1,75.0,70.0,65.2,98,86,56,29.95,29.87,20,2,20,0.00
2013-5-23,91.0,77.8,67.1,75.1,70.0,64.6,98,79,50,29.99,29.90,22,2,22,0.00
2013-5-24,94.2,78.3,65.7,75.7,66.3,54.3,97,72,28,30.06,29.95,23,3,23,0.00
2013-5-25,88.5,78.0,70.8,70.5,65.2,60.8,92,67,44,30.16,30.04,20,6,20,0.00
2013-5-26,87.3,72.9,58.8,64.8,59.8,51.6,96,66,32,30.20,30.09,18,4,18,0.00
2013-5-27,88.5,74.5,60.2,66.8,62.6,58.3,97,69,43,30.16,30.05,19,5,19,0.00
2013-5-28,88.3,76.2,68.2,72.9,69.5,65.5,95,81,54,30.12,30.03,24,6,24,0.02
2013-5-29,84.3,75.4,71.1,75.5,71.1,68.9,96,87,67,30.11,30.03,24,6,24,0.28
2013-5-30,84.3,77.3,72.0,74.6,71.0,68.0,95,82,65,30.09,30.00,30,8,30,0.34
2013-5-31,88.0,78.4,72.2,75.4,70.3,68.0,88,77,60,30.07,29.99,24,7,24,0.01